createdAt,value
2022-09-20T00:01:32.410Z,100.00
2022-09-20T00:04:06.900Z,100.00
2022-09-20T00:06:36.819Z,100.00
2022-09-20T00:09:06.509Z,100.00
2022-09-20T00:11:37.970Z,100.00
2022-09-20T00:14:09.330Z,100.00
2022-09-20T00:16:42.509Z,100.00
2022-09-20T00:19:19.288Z,100.00
2022-09-20T00:21:49.071Z,100.00
2022-09-20T00:24:19.108Z,100.00
2022-09-20T00:26:49.848Z,100.00
2022-09-20T00:29:19.294Z,100.00
2022-09-20T00:31:48.670Z,100.00
2022-09-20T00:34:35.428Z,100.00
2022-09-20T00:37:05.188Z,100.00
2022-09-20T00:39:34.580Z,100.00
2022-09-20T00:42:05.915Z,100.00
2022-09-20T00:44:58.311Z,100.00
2022-09-20T00:47:39.765Z,100.00
2022-09-20T00:50:34.798Z,100.00
2022-09-20T00:53:11.229Z,100.00
2022-09-20T00:55:47.284Z,100.00
2022-09-20T00:58:20.319Z,100.00
2022-09-20T01:00:52.706Z,100.00
2022-09-20T01:03:23.818Z,100.00
2022-09-20T01:05:54.550Z,100.00
2022-09-20T01:08:25.375Z,100.00
2022-09-20T01:10:55.152Z,100.00
2022-09-20T01:13:26.981Z,100.00
2022-09-20T01:16:00.393Z,100.00
2022-09-20T01:18:31.626Z,100.00
2022-09-20T01:21:02.800Z,100.00
2022-09-20T01:23:57.629Z,100.00
2022-09-20T01:26:58.017Z,100.00
2022-09-20T01:30:00.177Z,100.00
2022-09-20T01:32:59.476Z,100.00
2022-09-20T01:35:30.091Z,100.00
2022-09-20T01:38:24.942Z,100.00
2022-09-20T01:41:06.000Z,100.00
2022-09-20T01:43:42.489Z,100.00
2022-09-20T01:46:31.054Z,100.00
2022-09-20T01:49:22.024Z,100.00
2022-09-20T01:52:41.401Z,100.00
2022-09-20T01:56:19.605Z,100.00
2022-09-20T01:59:24.867Z,100.00
2022-09-20T02:02:33.997Z,100.00
2022-09-20T02:05:35.701Z,100.00
2022-09-20T02:08:41.415Z,100.00
2022-09-20T02:11:17.557Z,100.00
2022-09-20T02:14:30.109Z,100.00
2022-09-20T02:17:14.493Z,100.00
2022-09-20T02:20:03.018Z,100.00
2022-09-20T02:23:07.844Z,100.00
2022-09-20T02:26:17.010Z,100.00
2022-09-20T02:28:57.778Z,100.00
2022-09-20T02:32:10.505Z,100.00
2022-09-20T02:35:21.353Z,100.00
2022-09-20T02:38:18.496Z,100.00
2022-09-20T02:41:18.184Z,100.00
2022-09-20T02:44:01.043Z,100.00
2022-09-20T02:46:42.065Z,100.00
2022-09-20T02:49:27.846Z,100.00
2022-09-20T02:52:07.248Z,100.00
2022-09-20T02:54:51.676Z,100.00
2022-09-20T02:57:33.612Z,100.00
2022-09-20T03:00:07.734Z,100.00
2022-09-20T03:02:52.030Z,100.00
2022-09-20T03:05:30.816Z,100.00
2022-09-20T03:08:29.076Z,100.00
2022-09-20T03:11:13.496Z,100.00
2022-09-20T03:14:09.809Z,100.00
2022-09-20T03:16:59.129Z,100.00
2022-09-20T03:19:47.901Z,100.00
2022-09-20T03:22:35.584Z,100.00
2022-09-20T03:25:58.546Z,100.00
2022-09-20T03:28:54.848Z,100.00
2022-09-20T03:31:48.534Z,100.00
2022-09-20T03:34:36.556Z,100.00
2022-09-20T03:37:34.162Z,100.00
2022-09-20T03:41:12.474Z,100.00
2022-09-20T03:44:14.921Z,100.00
2022-09-20T03:46:48.829Z,100.00
2022-09-20T03:49:57.469Z,100.00
2022-09-20T03:53:02.512Z,100.00
2022-09-20T03:56:13.077Z,100.00
2022-09-20T03:59:15.496Z,100.00
2022-09-20T04:02:20.925Z,100.00
2022-09-20T04:04:56.757Z,100.00
2022-09-20T04:07:41.399Z,100.00
2022-09-20T04:10:44.421Z,100.00
2022-09-20T04:13:37.616Z,100.00
2022-09-20T04:16:24.464Z,100.00
2022-09-20T04:18:59.753Z,100.00
2022-09-20T04:21:38.893Z,100.00
2022-09-20T04:24:21.992Z,100.00
2022-09-20T04:26:58.309Z,100.00
2022-09-20T04:29:40.873Z,100.00
2022-09-20T04:32:21.090Z,100.00
2022-09-20T04:35:20.610Z,100.00
2022-09-20T04:37:52.022Z,100.00
2022-09-20T04:40:48.793Z,100.00
2022-09-20T04:44:02.160Z,100.00
2022-09-20T04:47:06.845Z,100.00
2022-09-20T04:50:56.365Z,100.00
2022-09-20T04:53:57.160Z,100.00
2022-09-20T04:56:48.713Z,100.00
2022-09-20T04:59:32.375Z,100.00
2022-09-20T05:03:19.316Z,100.00
2022-09-20T05:06:19.442Z,100.00
2022-09-20T05:09:30.042Z,100.00
2022-09-20T05:12:58.437Z,100.00
2022-09-20T05:15:43.372Z,100.00
2022-09-20T05:19:09.005Z,100.00
2022-09-20T05:22:05.273Z,100.00
2022-09-20T05:25:23.296Z,100.00
2022-09-20T05:28:02.852Z,100.00
2022-09-20T05:30:42.056Z,100.00
2022-09-20T05:33:23.669Z,100.00
2022-09-20T05:36:08.223Z,100.00
2022-09-20T05:38:49.832Z,100.00
2022-09-20T05:41:33.048Z,100.00
2022-09-20T05:44:15.556Z,100.00
2022-09-20T05:47:01.276Z,100.00
2022-09-20T05:49:53.293Z,100.00
2022-09-20T05:52:49.396Z,100.00
2022-09-20T05:55:52.759Z,100.00
2022-09-20T05:58:46.197Z,100.00
2022-09-20T06:01:25.307Z,100.00
2022-09-20T06:04:08.118Z,100.00
2022-09-20T06:06:56.190Z,100.00
2022-09-20T06:10:01.285Z,100.00
2022-09-20T06:12:52.844Z,100.00
2022-09-20T06:15:35.562Z,100.00
2022-09-20T06:18:26.876Z,100.00
2022-09-20T06:21:15.013Z,100.00
2022-09-20T06:23:45.806Z,100.00
2022-09-20T06:26:20.969Z,100.00
2022-09-20T06:28:58.443Z,100.00
2022-09-20T06:31:28.659Z,100.00
2022-09-20T06:34:04.805Z,100.00
2022-09-20T06:36:54.752Z,100.00
2022-09-20T06:39:56.316Z,100.00
2022-09-20T06:42:27.522Z,100.00
2022-09-20T06:44:57.256Z,100.00
2022-09-20T06:47:27.176Z,100.00
2022-09-20T06:49:56.560Z,100.00
2022-09-20T06:52:26.054Z,100.00
2022-09-20T06:54:57.773Z,100.00
2022-09-20T06:57:36.904Z,100.00
2022-09-20T07:00:11.520Z,100.00
2022-09-20T07:02:40.917Z,100.00
2022-09-20T07:05:16.536Z,100.00
2022-09-20T07:07:47.456Z,100.00
2022-09-20T07:10:18.216Z,100.00
2022-09-20T07:12:47.693Z,100.00
2022-09-20T07:15:17.294Z,100.00
2022-09-20T07:17:48.900Z,100.00
2022-09-20T07:20:21.562Z,100.00
2022-09-20T07:22:51.301Z,100.00
2022-09-20T07:25:22.616Z,100.00
2022-09-20T07:27:52.466Z,100.00
2022-09-20T07:30:22.593Z,100.00
2022-09-20T07:32:52.040Z,100.00
2022-09-20T07:35:21.432Z,100.00
2022-09-20T07:37:57.535Z,100.00
2022-09-20T07:40:28.433Z,100.00
2022-09-20T07:42:58.590Z,100.00
2022-09-20T07:45:28.054Z,100.00
2022-09-20T07:47:59.471Z,100.00
2022-09-20T07:50:28.866Z,100.00
2022-09-20T07:52:58.681Z,100.00
2022-09-20T07:55:29.433Z,100.00
2022-09-20T07:57:58.890Z,100.00
2022-09-20T08:00:28.299Z,100.00
2022-09-20T08:03:01.098Z,100.00
2022-09-20T08:05:31.780Z,100.00
2022-09-20T08:08:01.153Z,100.00
2022-09-20T08:10:32.742Z,100.00
2022-09-20T08:15:51.484Z,100.00
2022-09-20T08:18:21.284Z,100.00
2022-09-20T08:20:50.893Z,100.00
2022-09-20T08:23:23.827Z,100.00
2022-09-20T08:25:57.672Z,100.00
2022-09-20T08:28:27.085Z,100.00
2022-09-20T08:31:03.935Z,100.00
2022-09-20T08:33:36.418Z,100.00
2022-09-20T08:36:06.735Z,100.00
2022-09-20T08:41:32.156Z,100.00
2022-09-20T08:44:08.744Z,100.00
2022-09-20T08:46:44.948Z,100.00
2022-09-20T08:49:26.823Z,100.00
2022-09-20T08:51:58.125Z,100.00
2022-09-20T08:54:32.293Z,100.00
2022-09-20T08:57:07.780Z,100.00
2022-09-20T08:59:37.118Z,100.00
2022-09-20T09:02:17.984Z,100.00
2022-09-20T09:04:49.943Z,100.00
2022-09-20T09:07:22.065Z,100.00
2022-09-20T09:09:56.080Z,100.00
2022-09-20T09:12:32.121Z,100.00
2022-09-20T09:15:22.986Z,100.00
2022-09-20T09:17:52.331Z,100.00
2022-09-20T09:20:24.768Z,100.00
2022-09-20T09:23:04.130Z,100.00
2022-09-20T09:25:37.290Z,100.00
2022-09-20T09:28:15.699Z,100.00
2022-09-20T09:30:47.713Z,100.00
2022-09-20T09:33:28.126Z,100.00
2022-09-20T09:36:03.383Z,100.00
2022-09-20T09:38:37.019Z,100.00
2022-09-20T09:41:25.263Z,100.00
2022-09-20T09:44:04.936Z,100.00
2022-09-20T09:46:36.553Z,100.00
2022-09-20T09:49:12.870Z,100.00
2022-09-20T09:51:45.033Z,100.00
2022-09-20T09:54:19.850Z,100.00
2022-09-20T09:57:12.104Z,100.00
2022-09-20T10:00:10.771Z,100.00
2022-09-20T10:03:23.006Z,100.00
2022-09-20T10:06:14.539Z,100.00
2022-09-20T10:09:03.238Z,100.00
2022-09-20T10:11:58.801Z,100.00
2022-09-20T10:14:53.637Z,100.00
2022-09-20T10:17:49.840Z,100.00
2022-09-20T10:20:53.166Z,100.00
2022-09-20T10:24:07.746Z,100.00
2022-09-20T10:27:11.147Z,100.00
2022-09-20T10:30:01.604Z,100.00
2022-09-20T10:32:59.796Z,100.00
2022-09-20T10:35:59.067Z,100.00
2022-09-20T10:38:37.072Z,100.00
2022-09-20T10:41:45.133Z,100.00
2022-09-20T10:44:41.421Z,100.00
2022-09-20T10:47:20.208Z,100.00
2022-09-20T10:50:03.059Z,100.00
2022-09-20T10:52:53.201Z,100.00
2022-09-20T10:55:39.250Z,100.00
2022-09-20T10:58:54.211Z,100.00
2022-09-20T11:01:34.519Z,100.00
2022-09-20T11:04:44.261Z,100.00
2022-09-20T11:07:20.353Z,100.00
2022-09-20T11:10:00.710Z,100.00
2022-09-20T11:12:38.212Z,100.00
2022-09-20T11:15:21.830Z,100.00
2022-09-20T11:18:03.758Z,100.00
2022-09-20T11:20:44.113Z,100.00
2022-09-20T11:23:20.996Z,100.00
2022-09-20T11:25:55.508Z,100.00
2022-09-20T11:28:34.406Z,100.00
2022-09-20T11:31:12.890Z,100.00
2022-09-20T11:33:48.141Z,100.00
2022-09-20T11:36:26.764Z,100.00
2022-09-20T11:39:03.487Z,100.00
2022-09-20T11:41:33.731Z,100.00
2022-09-20T11:44:08.632Z,100.00
2022-09-20T11:46:47.141Z,100.00
2022-09-20T11:49:23.688Z,100.00
2022-09-20T11:52:46.465Z,100.00
2022-09-20T11:55:42.534Z,100.00
2022-09-20T11:58:16.710Z,100.00
2022-09-20T12:00:52.260Z,100.00
2022-09-20T12:03:35.581Z,100.00
2022-09-20T12:06:07.601Z,100.00
2022-09-20T12:08:41.861Z,100.00
2022-09-20T12:11:16.173Z,100.00
2022-09-20T12:13:58.735Z,100.00
2022-09-20T12:16:42.353Z,100.00
2022-09-20T12:19:14.409Z,100.00
2022-09-20T12:22:31.814Z,100.00
2022-09-20T12:25:39.529Z,100.00
2022-09-20T12:28:17.284Z,100.00
2022-09-20T12:30:46.687Z,100.00
2022-09-20T12:33:22.107Z,100.00
2022-09-20T12:36:17.387Z,100.00
2022-09-20T12:39:05.373Z,100.00
2022-09-20T12:41:52.836Z,100.00
2022-09-20T12:44:37.664Z,100.00
2022-09-20T12:47:19.001Z,100.00
2022-09-20T12:50:11.152Z,100.00
2022-09-20T12:52:58.126Z,100.00
2022-09-20T12:55:56.304Z,100.00
2022-09-20T12:58:41.546Z,100.00
2022-09-20T13:01:38.144Z,99.19
2022-09-20T13:05:02.915Z,100.00
2022-09-20T13:07:59.216Z,100.00
2022-09-20T13:10:35.865Z,100.00
2022-09-20T13:13:27.947Z,93.54
2022-09-20T13:15:59.681Z,92.04
2022-09-20T13:18:29.829Z,96.78
2022-09-20T13:21:06.424Z,87.09
2022-09-20T13:23:46.332Z,91.31
2022-09-20T13:26:16.903Z,94.70
2022-09-20T13:28:51.512Z,87.89
2022-09-20T13:31:40.132Z,87.24
2022-09-20T13:34:21.595Z,87.92
2022-09-20T13:36:56.407Z,90.52
2022-09-20T13:39:35.041Z,88.56
2022-09-20T13:42:11.648Z,89.56
2022-09-20T13:44:40.915Z,86.14
2022-09-20T13:47:28.959Z,79.41
2022-09-20T13:50:03.196Z,78.67
2022-09-20T13:52:33.625Z,83.33
2022-09-20T13:55:30.732Z,83.08
2022-09-20T13:58:03.900Z,84.60
2022-09-20T14:00:34.785Z,81.05
2022-09-20T14:03:05.767Z,88.61
2022-09-20T14:05:35.196Z,80.97
2022-09-20T14:08:04.339Z,68.50
2022-09-20T14:10:36.996Z,68.51
2022-09-20T14:13:08.297Z,66.27
2022-09-20T14:15:40.250Z,62.93
2022-09-20T14:18:16.691Z,67.58
2022-09-20T14:20:46.470Z,68.89
2022-09-20T14:23:22.804Z,71.23
2022-09-20T14:26:10.214Z,68.98
2022-09-20T14:28:39.298Z,68.15
2022-09-20T14:31:14.509Z,71.24
2022-09-20T14:33:49.803Z,67.73
2022-09-20T14:36:24.677Z,68.33
2022-09-20T14:38:56.666Z,68.67
2022-09-20T14:41:29.669Z,70.55
2022-09-20T14:44:00.561Z,73.06
2022-09-20T14:46:33.793Z,81.22
2022-09-20T14:49:30.052Z,74.65
2022-09-20T14:52:33.685Z,73.91
2022-09-20T14:55:11.384Z,75.42
2022-09-20T14:57:40.915Z,73.13
2022-09-20T15:00:15.147Z,70.98
2022-09-20T15:02:45.727Z,72.63
2022-09-20T15:05:23.866Z,71.19
2022-09-20T15:07:54.423Z,74.32
2022-09-20T15:10:24.032Z,75.51
2022-09-20T15:12:53.141Z,75.90
2022-09-20T15:15:22.212Z,78.21
2022-09-20T15:17:51.436Z,81.80
2022-09-20T15:20:24.598Z,80.10
2022-09-20T15:22:53.929Z,76.47
2022-09-20T15:25:23.515Z,75.31
2022-09-20T15:27:52.648Z,77.57
2022-09-20T15:30:22.364Z,80.58
2022-09-20T15:32:51.691Z,83.17
2022-09-20T15:35:22.168Z,80.63
2022-09-20T15:37:51.312Z,81.45
2022-09-20T15:40:20.443Z,83.08
2022-09-20T15:42:49.588Z,84.67
2022-09-20T15:45:19.611Z,82.51
2022-09-20T15:47:48.718Z,85.13
2022-09-20T15:50:18.043Z,88.52
2022-09-20T15:52:50.265Z,92.77
2022-09-20T15:55:20.243Z,92.31
2022-09-20T15:57:49.834Z,96.46
2022-09-20T16:00:19.764Z,96.79
2022-09-20T16:02:50.697Z,99.64
2022-09-20T16:05:19.824Z,100.00
2022-09-20T16:07:50.266Z,100.00
2022-09-20T16:10:19.371Z,100.00
2022-09-20T16:12:48.471Z,100.00
2022-09-20T16:15:17.616Z,100.00
2022-09-20T16:18:04.445Z,100.00
2022-09-20T16:20:33.576Z,100.00
2022-09-20T16:23:04.378Z,100.00
2022-09-20T16:25:33.538Z,100.00
2022-09-20T16:28:03.263Z,100.00
2022-09-20T16:30:32.355Z,100.00
2022-09-20T16:33:05.381Z,100.00
2022-09-20T16:35:34.595Z,100.00
2022-09-20T16:38:05.093Z,100.00
2022-09-20T16:40:35.047Z,100.00
2022-09-20T16:43:07.541Z,100.00
2022-09-20T16:45:37.172Z,100.00
2022-09-20T16:48:08.618Z,100.00
2022-09-20T16:50:38.093Z,100.00
2022-09-20T16:53:08.546Z,100.00
2022-09-20T16:55:38.564Z,100.00
2022-09-20T16:58:09.049Z,100.00
2022-09-20T17:00:38.222Z,100.00
2022-09-20T17:03:08.207Z,100.00
2022-09-20T17:05:37.304Z,100.00
2022-09-20T17:08:08.555Z,100.00
2022-09-20T17:10:37.735Z,100.00
2022-09-20T17:13:07.384Z,100.00
2022-09-20T17:15:37.728Z,100.00
2022-09-20T17:18:08.794Z,100.00
2022-09-20T17:20:40.068Z,100.00
2022-09-20T17:23:10.666Z,100.00
2022-09-20T17:25:46.172Z,100.00
2022-09-20T17:28:15.460Z,100.00
2022-09-20T17:30:44.768Z,100.00
2022-09-20T17:33:14.748Z,100.00
2022-09-20T17:35:52.088Z,100.00
2022-09-20T17:38:22.771Z,100.00
2022-09-20T17:41:01.503Z,100.00
2022-09-20T17:43:31.674Z,100.00
2022-09-20T17:46:10.093Z,100.00
2022-09-20T17:48:39.924Z,100.00
2022-09-20T17:51:12.666Z,100.00
2022-09-20T17:53:43.399Z,100.00
2022-09-20T17:56:15.308Z,100.00
2022-09-20T17:58:44.847Z,100.00
2022-09-20T18:01:16.331Z,100.00
2022-09-20T18:03:47.757Z,100.00
2022-09-20T18:06:19.649Z,100.00
2022-09-20T18:08:51.729Z,100.00
2022-09-20T18:11:24.898Z,100.00
2022-09-20T18:13:54.025Z,100.00
2022-09-20T18:16:24.259Z,100.00
2022-09-20T18:18:53.616Z,100.00
2022-09-20T18:21:25.224Z,100.00
2022-09-20T18:23:57.124Z,100.00
2022-09-20T18:26:29.977Z,100.00
2022-09-20T18:29:01.952Z,100.00
2022-09-20T18:31:33.382Z,100.00
2022-09-20T18:34:04.079Z,100.00
2022-09-20T18:36:36.050Z,100.00
2022-09-20T18:39:07.416Z,100.00
2022-09-20T18:41:39.749Z,100.00
2022-09-20T18:44:08.940Z,100.00
2022-09-20T18:46:39.043Z,100.00
2022-09-20T18:49:12.732Z,100.00
2022-09-20T18:51:42.466Z,100.00
2022-09-20T18:54:13.467Z,100.00
2022-09-20T18:56:44.620Z,100.00
2022-09-20T18:59:17.169Z,100.00
2022-09-20T19:02:10.516Z,100.00
2022-09-20T19:05:29.362Z,100.00
2022-09-20T19:08:17.897Z,100.00
2022-09-20T19:10:53.113Z,100.00
2022-09-20T19:13:36.262Z,100.00
2022-09-20T19:16:21.047Z,100.00
2022-09-20T19:19:41.116Z,100.00
2022-09-20T19:22:27.244Z,100.00
2022-09-20T19:25:19.117Z,100.00
2022-09-20T19:27:52.278Z,100.00
2022-09-20T19:30:22.971Z,100.00
2022-09-20T19:32:53.436Z,100.00
2022-09-20T19:35:33.476Z,100.00
2022-09-20T19:38:15.394Z,100.00
2022-09-20T19:40:54.519Z,100.00
2022-09-20T19:43:54.300Z,100.00
2022-09-20T19:46:46.884Z,100.00
2022-09-20T19:49:23.148Z,100.00
2022-09-20T19:51:57.013Z,100.00
2022-09-20T19:54:27.688Z,100.00
2022-09-20T19:56:59.962Z,100.00
2022-09-20T19:59:32.740Z,100.00
2022-09-20T20:02:03.495Z,100.00
2022-09-20T20:04:34.242Z,100.00
2022-09-20T20:07:15.352Z,100.00
2022-09-20T20:09:52.183Z,100.00
2022-09-20T20:14:25.818Z,100.00
2022-09-20T20:17:14.622Z,100.00
2022-09-20T20:20:19.826Z,100.00
2022-09-20T20:23:49.337Z,100.00
2022-09-20T20:26:23.544Z,100.00
2022-09-20T20:28:54.696Z,100.00
2022-09-20T20:31:26.114Z,100.00
2022-09-20T20:33:57.497Z,100.00
2022-09-20T20:36:26.932Z,100.00
2022-09-20T20:38:56.674Z,100.00
2022-09-20T20:41:27.232Z,100.00
2022-09-20T20:43:57.109Z,100.00
2022-09-20T20:46:33.965Z,100.00
2022-09-20T20:49:05.580Z,100.00
2022-09-20T20:51:35.012Z,100.00
2022-09-20T20:54:05.629Z,100.00
2022-09-20T20:56:35.288Z,100.00
2022-09-20T20:59:06.105Z,100.00
2022-09-20T21:01:39.526Z,100.00
2022-09-20T21:04:11.283Z,100.00
2022-09-20T21:06:42.290Z,100.00
2022-09-20T21:09:13.403Z,100.00
2022-09-20T21:11:44.093Z,100.00
2022-09-20T21:14:13.952Z,100.00
2022-09-20T21:16:45.512Z,100.00
2022-09-20T21:19:16.826Z,100.00
2022-09-20T21:21:48.378Z,100.00
2022-09-20T21:24:18.193Z,100.00
2022-09-20T21:26:48.458Z,100.00
2022-09-20T21:29:20.288Z,100.00
2022-09-20T21:31:49.724Z,100.00
2022-09-20T21:34:20.478Z,100.00
2022-09-20T21:36:51.008Z,100.00
2022-09-20T21:39:20.404Z,100.00
2022-09-20T21:41:49.814Z,100.00
2022-09-20T21:44:20.464Z,100.00
2022-09-20T21:46:50.063Z,100.00
2022-09-20T21:49:20.885Z,100.00
2022-09-20T21:51:52.018Z,100.00
2022-09-20T21:54:21.445Z,100.00
2022-09-20T21:56:52.873Z,100.00
2022-09-20T21:59:22.842Z,100.00
2022-09-20T22:01:52.679Z,100.00
2022-09-20T22:04:23.498Z,100.00
2022-09-20T22:06:52.905Z,100.00
2022-09-20T22:09:24.006Z,100.00
2022-09-20T22:11:53.417Z,100.00
2022-09-20T22:14:23.161Z,100.00
2022-09-20T22:16:52.632Z,100.00
2022-09-20T22:19:24.457Z,100.00
2022-09-20T22:21:53.836Z,100.00
2022-09-20T22:24:23.787Z,100.00
2022-09-20T22:26:53.642Z,100.00
2022-09-20T22:29:23.028Z,100.00
2022-09-20T22:31:52.428Z,100.00
2022-09-20T22:34:24.781Z,100.00
2022-09-20T22:36:54.244Z,100.00
2022-09-20T22:39:23.601Z,100.00
2022-09-20T22:41:53.293Z,100.00
2022-09-20T22:44:22.675Z,100.00
2022-09-20T22:46:51.889Z,100.00
2022-09-20T22:49:22.363Z,100.00
2022-09-20T22:51:51.510Z,100.00
2022-09-20T22:54:20.729Z,100.00
2022-09-20T22:56:49.845Z,100.00
2022-09-20T22:59:18.964Z,100.00
2022-09-20T23:01:49.233Z,100.00
2022-09-20T23:04:20.384Z,100.00
2022-09-20T23:06:54.770Z,100.00
2022-09-20T23:09:27.548Z,100.00
2022-09-20T23:11:57.238Z,100.00
2022-09-20T23:14:26.668Z,100.00
2022-09-20T23:16:55.973Z,100.00
2022-09-20T23:19:25.613Z,100.00
2022-09-20T23:21:56.353Z,100.00
2022-09-20T23:24:25.735Z,100.00
2022-09-20T23:26:55.096Z,100.00
2022-09-20T23:29:25.621Z,100.00
2022-09-20T23:31:55.124Z,100.00
2022-09-20T23:34:24.524Z,100.00
2022-09-20T23:36:55.276Z,100.00
2022-09-20T23:39:24.700Z,100.00
2022-09-20T23:41:54.068Z,100.00
2022-09-20T23:44:23.454Z,100.00
2022-09-20T23:46:52.856Z,100.00
2022-09-20T23:49:22.226Z,100.00
2022-09-20T23:51:51.641Z,100.00
2022-09-20T23:54:22.373Z,100.00
2022-09-20T23:56:51.894Z,100.00
2022-09-20T23:59:21.261Z,100.00
